sensor_id;sensor_type;location;lat;lon;timestamp;P1;durP1;ratioP1;P2;durP2;ratioP2
50689;SDS011;54375;48.298;11.238;2022-11-13T00:00:47;25.90;;;13.55;;
50689;SDS011;54375;48.298;11.238;2022-11-13T00:03:49;41.23;;;14.60;;
50689;SDS011;54375;48.298;11.238;2022-11-13T00:06:51;28.90;;;13.60;;
50689;SDS011;54375;48.298;11.238;2022-11-13T00:09:52;41.38;;;14.57;;
50689;SDS011;54375;48.298;11.238;2022-11-13T00:12:53;33.50;;;13.48;;
50689;SDS011;54375;48.298;11.238;2022-11-13T00:15:55;56.92;;;15.25;;
50689;SDS011;54375;48.298;11.238;2022-11-13T00:18:58;58.00;;;15.82;;
50689;SDS011;54375;48.298;11.238;2022-11-13T00:21:59;34.42;;;13.02;;
50689;SDS011;54375;48.298;11.238;2022-11-13T00:25:01;67.72;;;15.55;;
50689;SDS011;54375;48.298;11.238;2022-11-13T00:28:02;107.22;;;17.88;;
50689;SDS011;54375;48.298;11.238;2022-11-13T00:31:04;50.85;;;14.75;;
50689;SDS011;54375;48.298;11.238;2022-11-13T00:34:07;68.90;;;17.08;;
50689;SDS011;54375;48.298;11.238;2022-11-13T00:37:11;50.47;;;15.98;;
50689;SDS011;54375;48.298;11.238;2022-11-13T00:40:13;69.90;;;15.30;;
50689;SDS011;54375;48.298;11.238;2022-11-13T00:43:14;37.05;;;13.57;;
50689;SDS011;54375;48.298;11.238;2022-11-13T00:46:16;41.50;;;13.47;;
50689;SDS011;54375;48.298;11.238;2022-11-13T00:49:18;31.58;;;13.57;;
50689;SDS011;54375;48.298;11.238;2022-11-13T00:55:20;33.60;;;12.13;;
50689;SDS011;54375;48.298;11.238;2022-11-13T00:58:22;76.57;;;15.75;;
50689;SDS011;54375;48.298;11.238;2022-11-13T01:01:23;91.43;;;15.05;;
50689;SDS011;54375;48.298;11.238;2022-11-13T01:04:27;85.25;;;16.58;;
50689;SDS011;54375;48.298;11.238;2022-11-13T01:07:28;75.82;;;16.42;;
50689;SDS011;54375;48.298;11.238;2022-11-13T01:10:29;101.57;;;16.15;;
50689;SDS011;54375;48.298;11.238;2022-11-13T01:16:33;80.60;;;15.25;;
50689;SDS011;54375;48.298;11.238;2022-11-13T01:19:35;48.60;;;13.18;;
50689;SDS011;54375;48.298;11.238;2022-11-13T01:22:36;33.63;;;11.90;;
50689;SDS011;54375;48.298;11.238;2022-11-13T01:25:37;29.08;;;12.30;;
50689;SDS011;54375;48.298;11.238;2022-11-13T01:28:39;47.00;;;12.43;;
50689;SDS011;54375;48.298;11.238;2022-11-13T01:31:41;49.80;;;12.93;;
50689;SDS011;54375;48.298;11.238;2022-11-13T01:34:44;37.93;;;11.93;;
50689;SDS011;54375;48.298;11.238;2022-11-13T01:37:45;46.50;;;12.15;;
50689;SDS011;54375;48.298;11.238;2022-11-13T01:40:47;35.97;;;12.07;;
50689;SDS011;54375;48.298;11.238;2022-11-13T01:46:51;21.30;;;9.43;;
50689;SDS011;54375;48.298;11.238;2022-11-13T01:49:55;123.10;;;16.70;;
50689;SDS011;54375;48.298;11.238;2022-11-13T01:53:00;24.30;;;10.68;;
50689;SDS011;54375;48.298;11.238;2022-11-13T01:56:01;127.75;;;17.35;;
50689;SDS011;54375;48.298;11.238;2022-11-13T01:59:03;76.50;;;15.18;;
50689;SDS011;54375;48.298;11.238;2022-11-13T02:02:09;101.57;;;16.38;;
50689;SDS011;54375;48.298;11.238;2022-11-13T02:05:12;78.95;;;14.65;;
50689;SDS011;54375;48.298;11.238;2022-11-13T02:08:14;105.65;;;16.67;;
50689;SDS011;54375;48.298;11.238;2022-11-13T02:11:16;28.90;;;11.50;;
50689;SDS011;54375;48.298;11.238;2022-11-13T02:14:19;97.75;;;16.55;;
50689;SDS011;54375;48.298;11.238;2022-11-13T02:17:24;66.35;;;13.30;;
50689;SDS011;54375;48.298;11.238;2022-11-13T02:20:31;65.95;;;14.43;;
50689;SDS011;54375;48.298;11.238;2022-11-13T02:23:42;46.00;;;13.50;;
50689;SDS011;54375;48.298;11.238;2022-11-13T02:26:49;65.57;;;13.15;;
50689;SDS011;54375;48.298;11.238;2022-11-13T02:29:51;26.25;;;11.10;;
50689;SDS011;54375;48.298;11.238;2022-11-13T02:32:53;74.93;;;14.45;;
50689;SDS011;54375;48.298;11.238;2022-11-13T02:35:55;26.98;;;10.90;;
50689;SDS011;54375;48.298;11.238;2022-11-13T02:38:56;60.65;;;13.77;;
50689;SDS011;54375;48.298;11.238;2022-11-13T02:42:02;33.00;;;12.60;;
50689;SDS011;54375;48.298;11.238;2022-11-13T02:45:04;56.42;;;13.15;;
50689;SDS011;54375;48.298;11.238;2022-11-13T02:51:07;34.17;;;10.57;;
50689;SDS011;54375;48.298;11.238;2022-11-13T02:54:08;34.72;;;12.27;;
50689;SDS011;54375;48.298;11.238;2022-11-13T02:57:10;24.92;;;11.18;;
50689;SDS011;54375;48.298;11.238;2022-11-13T03:00:12;56.88;;;13.68;;
50689;SDS011;54375;48.298;11.238;2022-11-13T03:03:13;48.00;;;11.52;;
50689;SDS011;54375;48.298;11.238;2022-11-13T03:06:15;22.90;;;10.45;;
50689;SDS011;54375;48.298;11.238;2022-11-13T03:09:16;23.40;;;10.73;;
50689;SDS011;54375;48.298;11.238;2022-11-13T03:12:19;41.15;;;13.68;;
50689;SDS011;54375;48.298;11.238;2022-11-13T03:15:20;30.33;;;12.30;;
50689;SDS011;54375;48.298;11.238;2022-11-13T03:18:21;45.03;;;13.63;;
50689;SDS011;54375;48.298;11.238;2022-11-13T03:21:23;26.35;;;11.23;;
50689;SDS011;54375;48.298;11.238;2022-11-13T03:24:24;14.90;;;9.55;;
50689;SDS011;54375;48.298;11.238;2022-11-13T03:27:28;37.80;;;12.20;;
50689;SDS011;54375;48.298;11.238;2022-11-13T03:30:30;21.77;;;10.65;;
50689;SDS011;54375;48.298;11.238;2022-11-13T03:33:31;15.93;;;9.23;;
50689;SDS011;54375;48.298;11.238;2022-11-13T03:36:32;51.78;;;12.60;;
50689;SDS011;54375;48.298;11.238;2022-11-13T03:39:33;53.08;;;13.13;;
50689;SDS011;54375;48.298;11.238;2022-11-13T03:42:36;46.83;;;12.10;;
50689;SDS011;54375;48.298;11.238;2022-11-13T03:45:37;44.60;;;11.98;;
50689;SDS011;54375;48.298;11.238;2022-11-13T03:48:39;28.85;;;11.15;;
50689;SDS011;54375;48.298;11.238;2022-11-13T03:51:40;16.80;;;9.57;;
50689;SDS011;54375;48.298;11.238;2022-11-13T03:54:41;17.08;;;9.40;;
50689;SDS011;54375;48.298;11.238;2022-11-13T03:57:43;45.22;;;11.38;;
50689;SDS011;54375;48.298;11.238;2022-11-13T04:00:46;25.05;;;10.32;;
50689;SDS011;54375;48.298;11.238;2022-11-13T04:03:48;24.90;;;10.65;;
50689;SDS011;54375;48.298;11.238;2022-11-13T04:06:49;15.13;;;8.63;;
50689;SDS011;54375;48.298;11.238;2022-11-13T04:09:50;32.67;;;12.88;;
50689;SDS011;54375;48.298;11.238;2022-11-13T04:12:52;31.52;;;11.32;;
50689;SDS011;54375;48.298;11.238;2022-11-13T04:15:54;25.42;;;10.07;;
50689;SDS011;54375;48.298;11.238;2022-11-13T04:18:55;22.58;;;9.93;;
50689;SDS011;54375;48.298;11.238;2022-11-13T04:21:56;36.28;;;10.45;;
50689;SDS011;54375;48.298;11.238;2022-11-13T04:24:57;17.58;;;8.73;;
50689;SDS011;54375;48.298;11.238;2022-11-13T04:28:00;40.13;;;11.47;;
50689;SDS011;54375;48.298;11.238;2022-11-13T04:31:01;39.80;;;11.45;;
50689;SDS011;54375;48.298;11.238;2022-11-13T04:34:02;40.58;;;10.48;;
50689;SDS011;54375;48.298;11.238;2022-11-13T04:37:03;40.20;;;10.80;;
50689;SDS011;54375;48.298;11.238;2022-11-13T04:40:04;43.13;;;11.67;;
50689;SDS011;54375;48.298;11.238;2022-11-13T04:43:08;19.92;;;8.95;;
50689;SDS011;54375;48.298;11.238;2022-11-13T04:46:11;26.17;;;9.65;;
50689;SDS011;54375;48.298;11.238;2022-11-13T04:49:12;48.47;;;11.07;;
50689;SDS011;54375;48.298;11.238;2022-11-13T04:52:15;19.42;;;9.05;;
50689;SDS011;54375;48.298;11.238;2022-11-13T04:55:17;23.92;;;9.65;;
50689;SDS011;54375;48.298;11.238;2022-11-13T04:58:20;36.03;;;9.68;;
50689;SDS011;54375;48.298;11.238;2022-11-13T05:01:21;23.15;;;9.68;;
50689;SDS011;54375;48.298;11.238;2022-11-13T05:04:22;27.60;;;10.67;;
50689;SDS011;54375;48.298;11.238;2022-11-13T05:07:23;29.42;;;10.85;;
50689;SDS011;54375;48.298;11.238;2022-11-13T05:10:25;13.20;;;8.17;;
50689;SDS011;54375;48.298;11.238;2022-11-13T05:13:30;38.27;;;10.43;;
50689;SDS011;54375;48.298;11.238;2022-11-13T05:16:33;49.25;;;13.02;;
50689;SDS011;54375;48.298;11.238;2022-11-13T05:19:36;23.40;;;10.73;;
50689;SDS011;54375;48.298;11.238;2022-11-13T05:22:37;49.38;;;12.00;;
50689;SDS011;54375;48.298;11.238;2022-11-13T05:25:38;64.85;;;14.15;;
50689;SDS011;54375;48.298;11.238;2022-11-13T05:28:41;27.30;;;11.75;;
50689;SDS011;54375;48.298;11.238;2022-11-13T05:34:43;26.92;;;12.27;;
50689;SDS011;54375;48.298;11.238;2022-11-13T05:37:44;29.77;;;11.93;;
50689;SDS011;54375;48.298;11.238;2022-11-13T05:40:45;29.35;;;13.25;;
50689;SDS011;54375;48.298;11.238;2022-11-13T05:43:48;47.95;;;14.07;;
50689;SDS011;54375;48.298;11.238;2022-11-13T05:46:49;47.13;;;14.15;;
50689;SDS011;54375;48.298;11.238;2022-11-13T05:49:50;50.72;;;15.45;;
50689;SDS011;54375;48.298;11.238;2022-11-13T05:52:51;27.10;;;13.18;;
50689;SDS011;54375;48.298;11.238;2022-11-13T05:55:52;49.70;;;16.43;;
50689;SDS011;54375;48.298;11.238;2022-11-13T05:58:55;29.45;;;13.93;;
50689;SDS011;54375;48.298;11.238;2022-11-13T06:01:57;28.42;;;13.73;;
50689;SDS011;54375;48.298;11.238;2022-11-13T06:04:58;27.67;;;14.38;;
50689;SDS011;54375;48.298;11.238;2022-11-13T06:07:59;25.08;;;13.75;;
50689;SDS011;54375;48.298;11.238;2022-11-13T06:11:01;46.45;;;17.25;;
50689;SDS011;54375;48.298;11.238;2022-11-13T06:14:04;30.63;;;14.73;;
50689;SDS011;54375;48.298;11.238;2022-11-13T06:17:06;26.83;;;15.02;;
50689;SDS011;54375;48.298;11.238;2022-11-13T06:20:07;31.75;;;16.00;;
50689;SDS011;54375;48.298;11.238;2022-11-13T06:23:09;40.60;;;15.88;;
50689;SDS011;54375;48.298;11.238;2022-11-13T06:26:11;32.28;;;14.80;;
50689;SDS011;54375;48.298;11.238;2022-11-13T06:29:16;28.55;;;13.35;;
50689;SDS011;54375;48.298;11.238;2022-11-13T06:32:17;60.75;;;18.73;;
50689;SDS011;54375;48.298;11.238;2022-11-13T06:35:18;30.35;;;15.00;;
50689;SDS011;54375;48.298;11.238;2022-11-13T06:38:19;28.75;;;14.63;;
50689;SDS011;54375;48.298;11.238;2022-11-13T06:41:21;30.33;;;14.70;;
50689;SDS011;54375;48.298;11.238;2022-11-13T06:44:29;27.20;;;15.48;;
50689;SDS011;54375;48.298;11.238;2022-11-13T06:47:30;32.45;;;13.55;;
50689;SDS011;54375;48.298;11.238;2022-11-13T06:50:31;29.45;;;14.93;;
50689;SDS011;54375;48.298;11.238;2022-11-13T06:53:33;22.37;;;12.80;;
50689;SDS011;54375;48.298;11.238;2022-11-13T06:56:34;31.63;;;15.75;;
50689;SDS011;54375;48.298;11.238;2022-11-13T06:59:36;27.73;;;14.15;;
50689;SDS011;54375;48.298;11.238;2022-11-13T07:02:37;29.98;;;15.27;;
50689;SDS011;54375;48.298;11.238;2022-11-13T07:05:38;35.88;;;16.10;;
50689;SDS011;54375;48.298;11.238;2022-11-13T07:08:39;35.63;;;15.02;;
50689;SDS011;54375;48.298;11.238;2022-11-13T07:11:40;32.85;;;14.10;;
50689;SDS011;54375;48.298;11.238;2022-11-13T07:14:43;32.45;;;15.27;;
50689;SDS011;54375;48.298;11.238;2022-11-13T07:17:44;49.08;;;15.07;;
50689;SDS011;54375;48.298;11.238;2022-11-13T07:20:45;25.52;;;14.20;;
50689;SDS011;54375;48.298;11.238;2022-11-13T07:23:46;29.10;;;14.27;;
50689;SDS011;54375;48.298;11.238;2022-11-13T07:26:48;35.22;;;15.93;;
50689;SDS011;54375;48.298;11.238;2022-11-13T07:29:51;24.17;;;13.55;;
50689;SDS011;54375;48.298;11.238;2022-11-13T07:32:52;19.67;;;12.75;;
50689;SDS011;54375;48.298;11.238;2022-11-13T07:35:53;29.33;;;14.82;;
50689;SDS011;54375;48.298;11.238;2022-11-13T07:38:54;27.83;;;16.25;;
50689;SDS011;54375;48.298;11.238;2022-11-13T07:41:55;23.40;;;13.98;;
50689;SDS011;54375;48.298;11.238;2022-11-13T07:44:57;23.63;;;14.43;;
50689;SDS011;54375;48.298;11.238;2022-11-13T07:47:59;24.02;;;15.38;;
50689;SDS011;54375;48.298;11.238;2022-11-13T07:51:01;48.65;;;14.75;;
50689;SDS011;54375;48.298;11.238;2022-11-13T07:54:03;27.30;;;16.50;;
50689;SDS011;54375;48.298;11.238;2022-11-13T07:57:04;21.13;;;12.63;;
50689;SDS011;54375;48.298;11.238;2022-11-13T08:00:07;22.52;;;13.38;;
50689;SDS011;54375;48.298;11.238;2022-11-13T08:03:10;17.15;;;11.73;;
50689;SDS011;54375;48.298;11.238;2022-11-13T08:06:12;22.50;;;13.77;;
50689;SDS011;54375;48.298;11.238;2022-11-13T08:09:14;23.70;;;14.02;;
50689;SDS011;54375;48.298;11.238;2022-11-13T08:12:14;19.38;;;11.80;;
50689;SDS011;54375;48.298;11.238;2022-11-13T08:15:17;21.15;;;12.88;;
50689;SDS011;54375;48.298;11.238;2022-11-13T08:18:18;18.85;;;12.38;;
50689;SDS011;54375;48.298;11.238;2022-11-13T08:21:19;19.38;;;11.75;;
50689;SDS011;54375;48.298;11.238;2022-11-13T08:24:20;18.92;;;12.60;;
50689;SDS011;54375;48.298;11.238;2022-11-13T08:27:21;20.45;;;12.52;;
50689;SDS011;54375;48.298;11.238;2022-11-13T08:33:26;19.60;;;13.07;;
50689;SDS011;54375;48.298;11.238;2022-11-13T08:36:27;26.20;;;14.00;;
50689;SDS011;54375;48.298;11.238;2022-11-13T08:39:28;19.38;;;12.20;;
50689;SDS011;54375;48.298;11.238;2022-11-13T08:42:29;20.23;;;13.20;;
50689;SDS011;54375;48.298;11.238;2022-11-13T08:45:32;21.50;;;13.60;;
50689;SDS011;54375;48.298;11.238;2022-11-13T08:48:33;23.63;;;14.50;;
50689;SDS011;54375;48.298;11.238;2022-11-13T08:51:34;18.92;;;12.75;;
50689;SDS011;54375;48.298;11.238;2022-11-13T08:54:35;20.90;;;13.30;;
50689;SDS011;54375;48.298;11.238;2022-11-13T08:57:36;19.03;;;12.30;;
50689;SDS011;54375;48.298;11.238;2022-11-13T09:00:39;17.27;;;12.45;;
50689;SDS011;54375;48.298;11.238;2022-11-13T09:03:40;19.73;;;12.48;;
50689;SDS011;54375;48.298;11.238;2022-11-13T09:06:41;20.40;;;12.40;;
50689;SDS011;54375;48.298;11.238;2022-11-13T09:09:43;18.45;;;12.40;;
50689;SDS011;54375;48.298;11.238;2022-11-13T09:12:44;17.90;;;12.13;;
50689;SDS011;54375;48.298;11.238;2022-11-13T09:15:46;17.10;;;12.03;;
50689;SDS011;54375;48.298;11.238;2022-11-13T09:18:48;18.85;;;12.93;;
50689;SDS011;54375;48.298;11.238;2022-11-13T09:21:49;15.45;;;11.02;;
50689;SDS011;54375;48.298;11.238;2022-11-13T09:24:51;17.45;;;12.27;;
50689;SDS011;54375;48.298;11.238;2022-11-13T09:27:52;18.63;;;12.55;;
50689;SDS011;54375;48.298;11.238;2022-11-13T09:33:56;33.03;;;23.30;;
50689;SDS011;54375;48.298;11.238;2022-11-13T09:36:57;17.70;;;12.48;;
50689;SDS011;54375;48.298;11.238;2022-11-13T09:39:58;16.10;;;11.60;;
50689;SDS011;54375;48.298;11.238;2022-11-13T09:43:00;17.48;;;11.80;;
50689;SDS011;54375;48.298;11.238;2022-11-13T09:46:06;16.00;;;10.80;;
50689;SDS011;54375;48.298;11.238;2022-11-13T09:49:14;15.20;;;11.32;;
50689;SDS011;54375;48.298;11.238;2022-11-13T09:52:17;18.98;;;11.23;;
50689;SDS011;54375;48.298;11.238;2022-11-13T09:55:24;17.33;;;12.30;;
50689;SDS011;54375;48.298;11.238;2022-11-13T09:58:41;17.10;;;11.95;;
50689;SDS011;54375;48.298;11.238;2022-11-13T10:01:50;17.42;;;12.25;;
50689;SDS011;54375;48.298;11.238;2022-11-13T10:05:03;17.05;;;11.18;;
50689;SDS011;54375;48.298;11.238;2022-11-13T10:08:12;16.35;;;11.57;;
50689;SDS011;54375;48.298;11.238;2022-11-13T10:11:17;18.45;;;12.18;;
50689;SDS011;54375;48.298;11.238;2022-11-13T10:14:24;18.25;;;11.73;;
50689;SDS011;54375;48.298;11.238;2022-11-13T10:17:32;14.98;;;10.95;;
50689;SDS011;54375;48.298;11.238;2022-11-13T10:20:38;15.07;;;10.88;;
50689;SDS011;54375;48.298;11.238;2022-11-13T10:23:48;19.35;;;12.05;;
50689;SDS011;54375;48.298;11.238;2022-11-13T10:26:55;15.40;;;11.27;;
50689;SDS011;54375;48.298;11.238;2022-11-13T10:29:59;19.77;;;13.57;;
50689;SDS011;54375;48.298;11.238;2022-11-13T10:33:02;15.57;;;11.53;;
50689;SDS011;54375;48.298;11.238;2022-11-13T10:36:07;15.63;;;10.73;;
50689;SDS011;54375;48.298;11.238;2022-11-13T10:39:17;17.45;;;11.63;;
50689;SDS011;54375;48.298;11.238;2022-11-13T10:42:19;16.20;;;11.95;;
50689;SDS011;54375;48.298;11.238;2022-11-13T10:45:25;16.10;;;12.27;;
50689;SDS011;54375;48.298;11.238;2022-11-13T10:48:30;17.13;;;11.65;;
50689;SDS011;54375;48.298;11.238;2022-11-13T10:51:33;18.08;;;11.65;;
50689;SDS011;54375;48.298;11.238;2022-11-13T10:54:34;17.50;;;12.05;;
50689;SDS011;54375;48.298;11.238;2022-11-13T10:57:37;15.85;;;11.13;;
50689;SDS011;54375;48.298;11.238;2022-11-13T11:00:38;17.47;;;12.33;;
50689;SDS011;54375;48.298;11.238;2022-11-13T11:03:48;15.23;;;11.63;;
50689;SDS011;54375;48.298;11.238;2022-11-13T11:06:50;16.42;;;12.13;;
50689;SDS011;54375;48.298;11.238;2022-11-13T11:09:51;15.90;;;12.02;;
50689;SDS011;54375;48.298;11.238;2022-11-13T11:12:53;15.10;;;11.87;;
50689;SDS011;54375;48.298;11.238;2022-11-13T11:15:57;14.05;;;11.23;;
50689;SDS011;54375;48.298;11.238;2022-11-13T11:19:04;15.82;;;11.38;;
50689;SDS011;54375;48.298;11.238;2022-11-13T11:22:11;14.38;;;10.85;;
50689;SDS011;54375;48.298;11.238;2022-11-13T11:25:16;17.35;;;12.27;;
50689;SDS011;54375;48.298;11.238;2022-11-13T11:28:28;15.95;;;11.27;;
50689;SDS011;54375;48.298;11.238;2022-11-13T11:31:34;15.13;;;11.48;;
50689;SDS011;54375;48.298;11.238;2022-11-13T11:34:41;14.88;;;11.13;;
50689;SDS011;54375;48.298;11.238;2022-11-13T11:37:48;15.88;;;11.70;;
50689;SDS011;54375;48.298;11.238;2022-11-13T11:41:02;16.00;;;11.65;;
50689;SDS011;54375;48.298;11.238;2022-11-13T11:44:12;17.65;;;12.00;;
50689;SDS011;54375;48.298;11.238;2022-11-13T11:47:18;15.82;;;11.38;;
50689;SDS011;54375;48.298;11.238;2022-11-13T11:50:26;14.10;;;11.03;;
50689;SDS011;54375;48.298;11.238;2022-11-13T11:53:36;15.18;;;11.20;;
50689;SDS011;54375;48.298;11.238;2022-11-13T11:56:44;18.42;;;12.55;;
50689;SDS011;54375;48.298;11.238;2022-11-13T11:59:53;15.73;;;11.52;;
50689;SDS011;54375;48.298;11.238;2022-11-13T12:06:42;15.85;;;11.38;;
50689;SDS011;54375;48.298;11.238;2022-11-13T12:09:52;16.05;;;12.10;;
50689;SDS011;54375;48.298;11.238;2022-11-13T12:13:05;15.80;;;11.05;;
50689;SDS011;54375;48.298;11.238;2022-11-13T12:16:19;13.88;;;10.98;;
50689;SDS011;54375;48.298;11.238;2022-11-13T12:19:42;14.18;;;11.32;;
50689;SDS011;54375;48.298;11.238;2022-11-13T12:22:54;15.68;;;10.75;;
50689;SDS011;54375;48.298;11.238;2022-11-13T12:26:04;16.25;;;10.93;;
50689;SDS011;54375;48.298;11.238;2022-11-13T12:29:20;15.30;;;10.95;;
50689;SDS011;54375;48.298;11.238;2022-11-13T12:32:29;16.65;;;11.50;;
50689;SDS011;54375;48.298;11.238;2022-11-13T12:35:49;14.68;;;10.75;;
50689;SDS011;54375;48.298;11.238;2022-11-13T12:38:54;16.42;;;10.82;;
50689;SDS011;54375;48.298;11.238;2022-11-13T12:42:01;14.23;;;10.77;;
50689;SDS011;54375;48.298;11.238;2022-11-13T12:45:15;13.95;;;10.18;;
50689;SDS011;54375;48.298;11.238;2022-11-13T12:48:24;14.25;;;10.85;;
50689;SDS011;54375;48.298;11.238;2022-11-13T12:51:36;15.48;;;10.95;;
50689;SDS011;54375;48.298;11.238;2022-11-13T12:54:39;17.63;;;11.23;;
50689;SDS011;54375;48.298;11.238;2022-11-13T12:57:45;16.25;;;10.60;;
50689;SDS011;54375;48.298;11.238;2022-11-13T13:00:50;13.38;;;10.40;;
50689;SDS011;54375;48.298;11.238;2022-11-13T13:04:03;14.48;;;10.43;;
50689;SDS011;54375;48.298;11.238;2022-11-13T13:07:21;16.23;;;11.73;;
50689;SDS011;54375;48.298;11.238;2022-11-13T13:10:35;15.55;;;10.98;;
50689;SDS011;54375;48.298;11.238;2022-11-13T13:13:50;14.05;;;10.27;;
50689;SDS011;54375;48.298;11.238;2022-11-13T13:17:04;15.23;;;10.70;;
50689;SDS011;54375;48.298;11.238;2022-11-13T13:23:30;13.07;;;9.90;;
50689;SDS011;54375;48.298;11.238;2022-11-13T13:26:42;15.50;;;10.05;;
50689;SDS011;54375;48.298;11.238;2022-11-13T13:29:44;13.98;;;10.63;;
50689;SDS011;54375;48.298;11.238;2022-11-13T13:32:49;12.83;;;10.33;;
50689;SDS011;54375;48.298;11.238;2022-11-13T13:36:00;13.68;;;10.38;;
50689;SDS011;54375;48.298;11.238;2022-11-13T13:39:13;12.30;;;10.00;;
50689;SDS011;54375;48.298;11.238;2022-11-13T13:42:31;15.63;;;10.27;;
50689;SDS011;54375;48.298;11.238;2022-11-13T13:45:42;15.45;;;9.68;;
50689;SDS011;54375;48.298;11.238;2022-11-13T13:48:55;14.77;;;10.52;;
50689;SDS011;54375;48.298;11.238;2022-11-13T13:52:01;13.32;;;10.02;;
50689;SDS011;54375;48.298;11.238;2022-11-13T13:55:04;13.85;;;9.90;;
50689;SDS011;54375;48.298;11.238;2022-11-13T13:58:08;13.90;;;10.90;;
50689;SDS011;54375;48.298;11.238;2022-11-13T14:01:14;12.30;;;9.80;;
50689;SDS011;54375;48.298;11.238;2022-11-13T14:04:26;12.32;;;9.98;;
50689;SDS011;54375;48.298;11.238;2022-11-13T14:07:28;12.80;;;9.93;;
50689;SDS011;54375;48.298;11.238;2022-11-13T14:10:30;14.88;;;10.88;;
50689;SDS011;54375;48.298;11.238;2022-11-13T14:13:32;12.47;;;10.27;;
50689;SDS011;54375;48.298;11.238;2022-11-13T14:16:33;14.60;;;10.85;;
50689;SDS011;54375;48.298;11.238;2022-11-13T14:19:34;14.70;;;11.03;;
50689;SDS011;54375;48.298;11.238;2022-11-13T14:22:35;25.00;;;14.30;;
50689;SDS011;54375;48.298;11.238;2022-11-13T14:28:44;15.43;;;10.18;;
50689;SDS011;54375;48.298;11.238;2022-11-13T14:31:53;12.95;;;9.95;;
50689;SDS011;54375;48.298;11.238;2022-11-13T14:34:55;13.63;;;9.88;;
50689;SDS011;54375;48.298;11.238;2022-11-13T14:37:59;14.07;;;10.18;;
50689;SDS011;54375;48.298;11.238;2022-11-13T14:41:00;15.00;;;10.85;;
50689;SDS011;54375;48.298;11.238;2022-11-13T14:44:04;13.82;;;10.52;;
50689;SDS011;54375;48.298;11.238;2022-11-13T14:47:18;14.38;;;9.80;;
50689;SDS011;54375;48.298;11.238;2022-11-13T14:50:22;13.07;;;9.82;;
50689;SDS011;54375;48.298;11.238;2022-11-13T14:53:25;13.55;;;10.02;;
50689;SDS011;54375;48.298;11.238;2022-11-13T14:56:32;15.93;;;11.02;;
50689;SDS011;54375;48.298;11.238;2022-11-13T14:59:36;14.55;;;11.00;;
50689;SDS011;54375;48.298;11.238;2022-11-13T15:02:38;13.85;;;10.45;;
50689;SDS011;54375;48.298;11.238;2022-11-13T15:05:39;17.00;;;12.10;;
50689;SDS011;54375;48.298;11.238;2022-11-13T15:08:39;17.27;;;12.07;;
50689;SDS011;54375;48.298;11.238;2022-11-13T15:11:41;14.55;;;10.55;;
50689;SDS011;54375;48.298;11.238;2022-11-13T15:14:44;14.98;;;10.98;;
50689;SDS011;54375;48.298;11.238;2022-11-13T15:17:45;14.07;;;10.60;;
50689;SDS011;54375;48.298;11.238;2022-11-13T15:20:49;16.48;;;11.02;;
50689;SDS011;54375;48.298;11.238;2022-11-13T15:23:50;17.33;;;12.40;;
50689;SDS011;54375;48.298;11.238;2022-11-13T15:26:51;22.23;;;15.95;;
50689;SDS011;54375;48.298;11.238;2022-11-13T15:29:53;18.80;;;14.10;;
50689;SDS011;54375;48.298;11.238;2022-11-13T15:32:54;17.95;;;12.32;;
50689;SDS011;54375;48.298;11.238;2022-11-13T15:35:55;19.30;;;14.00;;
50689;SDS011;54375;48.298;11.238;2022-11-13T15:38:56;16.65;;;11.93;;
50689;SDS011;54375;48.298;11.238;2022-11-13T15:41:57;19.27;;;14.65;;
50689;SDS011;54375;48.298;11.238;2022-11-13T15:44:59;17.03;;;12.03;;
50689;SDS011;54375;48.298;11.238;2022-11-13T15:48:01;15.25;;;12.20;;
50689;SDS011;54375;48.298;11.238;2022-11-13T15:51:02;17.45;;;12.25;;
50689;SDS011;54375;48.298;11.238;2022-11-13T15:54:04;16.20;;;12.77;;
50689;SDS011;54375;48.298;11.238;2022-11-13T15:57:15;19.40;;;13.60;;
50689;SDS011;54375;48.298;11.238;2022-11-13T16:00:21;18.52;;;13.15;;
50689;SDS011;54375;48.298;11.238;2022-11-13T16:03:23;18.65;;;12.18;;
50689;SDS011;54375;48.298;11.238;2022-11-13T16:06:24;16.83;;;12.73;;
50689;SDS011;54375;48.298;11.238;2022-11-13T16:09:25;17.15;;;12.50;;
50689;SDS011;54375;48.298;11.238;2022-11-13T16:12:26;15.93;;;11.80;;
50689;SDS011;54375;48.298;11.238;2022-11-13T16:15:29;15.47;;;11.23;;
50689;SDS011;54375;48.298;11.238;2022-11-13T16:18:30;19.42;;;14.23;;
50689;SDS011;54375;48.298;11.238;2022-11-13T16:21:31;20.33;;;13.68;;
50689;SDS011;54375;48.298;11.238;2022-11-13T16:24:32;20.55;;;14.02;;
50689;SDS011;54375;48.298;11.238;2022-11-13T16:27:33;21.38;;;15.55;;
50689;SDS011;54375;48.298;11.238;2022-11-13T16:30:35;20.38;;;14.25;;
50689;SDS011;54375;48.298;11.238;2022-11-13T16:33:36;19.25;;;14.43;;
50689;SDS011;54375;48.298;11.238;2022-11-13T16:36:38;20.83;;;16.02;;
50689;SDS011;54375;48.298;11.238;2022-11-13T16:39:40;20.90;;;15.52;;
50689;SDS011;54375;48.298;11.238;2022-11-13T16:42:41;23.88;;;16.95;;
50689;SDS011;54375;48.298;11.238;2022-11-13T16:45:43;21.17;;;14.63;;
50689;SDS011;54375;48.298;11.238;2022-11-13T16:48:44;24.90;;;18.40;;
50689;SDS011;54375;48.298;11.238;2022-11-13T16:51:45;23.98;;;17.80;;
50689;SDS011;54375;48.298;11.238;2022-11-13T16:54:46;24.35;;;17.95;;
50689;SDS011;54375;48.298;11.238;2022-11-13T16:57:47;29.88;;;21.77;;
50689;SDS011;54375;48.298;11.238;2022-11-13T17:00:49;29.40;;;19.05;;
50689;SDS011;54375;48.298;11.238;2022-11-13T17:03:50;31.08;;;21.52;;
50689;SDS011;54375;48.298;11.238;2022-11-13T17:06:52;32.00;;;23.33;;
50689;SDS011;54375;48.298;11.238;2022-11-13T17:09:53;52.28;;;35.97;;
50689;SDS011;54375;48.298;11.238;2022-11-13T17:12:53;45.25;;;32.13;;
50689;SDS011;54375;48.298;11.238;2022-11-13T17:15:56;36.42;;;24.02;;
50689;SDS011;54375;48.298;11.238;2022-11-13T17:18:59;31.73;;;23.85;;
50689;SDS011;54375;48.298;11.238;2022-11-13T17:22:00;27.45;;;20.17;;
50689;SDS011;54375;48.298;11.238;2022-11-13T17:25:01;29.20;;;21.63;;
50689;SDS011;54375;48.298;11.238;2022-11-13T17:28:02;33.03;;;23.13;;
50689;SDS011;54375;48.298;11.238;2022-11-13T17:31:05;36.83;;;25.17;;
50689;SDS011;54375;48.298;11.238;2022-11-13T17:34:07;29.25;;;21.23;;
50689;SDS011;54375;48.298;11.238;2022-11-13T17:37:08;31.98;;;21.92;;
50689;SDS011;54375;48.298;11.238;2022-11-13T17:40:09;43.92;;;28.25;;
50689;SDS011;54375;48.298;11.238;2022-11-13T17:43:11;41.30;;;24.63;;
50689;SDS011;54375;48.298;11.238;2022-11-13T17:46:14;36.53;;;23.63;;
50689;SDS011;54375;48.298;11.238;2022-11-13T17:49:16;46.08;;;29.17;;
50689;SDS011;54375;48.298;11.238;2022-11-13T17:52:17;47.03;;;29.27;;
50689;SDS011;54375;48.298;11.238;2022-11-13T17:55:18;47.45;;;29.13;;
50689;SDS011;54375;48.298;11.238;2022-11-13T17:58:19;41.83;;;25.05;;
50689;SDS011;54375;48.298;11.238;2022-11-13T18:01:21;40.30;;;26.45;;
50689;SDS011;54375;48.298;11.238;2022-11-13T18:04:22;41.60;;;25.02;;
50689;SDS011;54375;48.298;11.238;2022-11-13T18:07:23;42.22;;;25.45;;